< < Back
Terminal Aerodrome Forecast


Current Version              Previous Versions:   1  2  3  4  5  6  7  8  9  

Terminal Aerodrome Forecast

130
FTUS42 KILM 252300
TAFFLO
TAF
KFLO 252322Z 2600/2624 03004KT 5SM -RA BR SCT020 OVC100
      TEMPO 2603/2605 BKN020
     FM260500 01009KT 4SM -RA BR BKN009 OVC020
     FM261200 33014G20KT 6SM -RA SCT009 OVC020
     FM261700 30011KT P6SM SCT020 BKN100=

Latest METAR

814
SAUS70 KWBC 260000 RRL
MTRFLO
METAR KFLO 252353Z 00000KT 9SM -RA SCT075 OVC095 17/15 A3004 RMK AO2
SLP171 P0002 60006 T01670150 10178 20161 51009


USA.gov is the U.S. government's official web portal to all federal, state and local government web resources and services.